Latest Coastal Weather Observations for Bundaberg

IDQ60701

Issued at 8:51 am EST Sunday 31 May 2015 (issued every 10 minutes, with the page automatically refreshed every 10 minutes)

About coastal observations | Map of coastal stations | Coastal observations for QLD | Marine services | Other Formats
Station Details ID: 039128 Name: BUNDABERG AERO Lat: -24.91 Lon: 152.32 Height: 30.82 m
Data from the previous 72 hours. | See also: Recent months at Bundaberg
Date/Time
EST
Temp

°C
Wind Pressure Rain
since 9am
mm
Weather Cloud Vis
km
Sea
Height
m
Swell
Dir
 
Speed
knots
Gust
knots
hPa Trend Height
m
Period
s
Dir
31/08:30am 20.4 WNW 4 5 1019.9 - 0.2 - Partly cloudy 10 - - - -
31/08:00am 18.4 CALM 0 0 1019.6 - 0.2 - - 10 - - - -
31/07:39am 17.4 CALM 0 0 1019.3 - 0.2 - Partly cloudy 10 - - - -
31/07:30am 17.0 CALM 0 0 1019.3 - 0.2 - Partly cloudy 7 - - - -
31/07:23am 16.6 CALM 0 0 1019.2 - 0.2 - Partly cloudy 5 - - - -
31/07:00am 15.3 CALM 0 0 1019.2 - 0.2 - - 9 - - - -
31/06:50am 15.0 CALM 0 0 1019.1 - 0.2 - Partly cloudy 8 - - - -
31/06:46am 14.7 CALM 0 0 1019.0 - 0.2 - Partly cloudy 8 - - - -
31/06:30am 14.8 CALM 0 0 1018.8 - 0.2 - Partly cloudy 1 - - - -
31/06:17am 14.9 CALM 0 0 1018.9 - 0.2 - Partly cloudy 0.8 - - - -
31/06:00am 14.8 CALM 0 0 1018.7 - 0.2 - Partly cloudy 2 - - - -
31/05:49am 14.7 CALM 0 0 1018.6 - 0.2 - Cloudy 1 - - - -
31/05:30am 14.9 CALM 0 0 1018.4 - 0.2 - Cloudy 0.5 - - - -
31/05:17am 15.1 CALM 0 0 1018.3 - 0.2 - Cloudy 0.9 - - - -
31/05:00am 14.9 CALM 0 0 1018.2 - 0.2 - Cloudy 1 - - - -
31/04:30am 15.5 CALM 0 0 1017.9 - 0.2 - Cloudy 0.2 - - - -
31/04:00am 15.6 CALM 0 0 1017.9 - 0.2 - Cloudy 0.2 - - - -
31/03:30am 16.0 WSW 3 4 1018.0 - 0.2 - Cloudy 0.2 - - - -
31/03:00am 16.3 W 3 3 1018.1 - 0.0 - Cloudy 0.3 - - - -
31/02:30am 16.3 W 4 5 1018.1 - 0.0 - Cloudy 0.6 - - - -
31/02:00am 16.6 W 5 5 1018.3 - 0.0 - Cloudy 0.4 - - - -
31/01:30am 16.2 W 2 5 1018.6 - 0.0 - Cloudy 0.1 - - - -
31/01:00am 16.1 CALM 0 0 1018.8 - 0.0 - Partly cloudy 0.2 - - - -
31/12:30am 15.8 CALM 0 3 1019.1 - 0.0 - Cloudy 0.4 - - - -
 
Date/Time
EST
Temp

°C
Wind Pressure Rain
since 9am
mm
Weather Cloud Vis
km
Sea
Height
m
Swell
Dir
 
Speed
knots
Gust
knots
hPa Trend Height
m
Period
s
Dir
30/11:30pm 16.3 CALM 0 0 1019.5 - 0.0 - Cloudy 0.2 - - - -
30/11:00pm 16.5 CALM 0 0 1019.7 - 0.0 - Cloudy 0.2 - - - -
30/10:35pm 16.5 CALM 0 0 1019.9 - 0.0 - Partly cloudy 4 - - - -
30/10:31pm 16.3 CALM 0 0 1019.9 - 0.0 - Partly cloudy 5 - - - -
30/10:30pm 16.4 CALM 0 0 1019.9 - 0.0 - Partly cloudy 6 - - - -
30/10:28pm 16.5 CALM 0 0 1019.9 - 0.0 - Partly cloudy 6 - - - -
30/10:14pm 17.1 CALM 0 0 1020.0 - 0.0 - - 4 - - - -
30/10:00pm 17.2 CALM 0 0 1019.9 - 0.0 - Partly cloudy 7 - - - -
30/09:30pm 17.9 CALM 0 0 1019.9 - 0.0 - - 0.8 - - - -
30/09:26pm 18.1 CALM 0 0 1019.9 - 0.0 - - 5 - - - -
30/09:00pm 17.9 CALM 0 0 1020.1 - 0.0 - - 9 - - - -
30/08:30pm 17.6 NE 5 6 1020.0 - 0.0 - - 10 - - - -
30/08:00pm 18.5 CALM 0 0 1020.0 - 0.0 - - 10 - - - -
30/07:30pm 19.1 CALM 0 2 1020.0 - 0.0 - - 10 - - - -
30/07:00pm 20.1 NNE 4 5 1019.9 - 0.0 - - 10 - - - -
30/06:30pm 20.2 NNE 5 6 1019.8 - 0.0 - - 10 - - - -
30/06:00pm 20.6 NNE 5 7 1019.6 - 0.0 - - 10 - - - -
30/05:30pm 21.3 NNE 6 8 1019.2 - 0.0 - - 10 - - - -
30/05:00pm 22.2 NNE 7 9 1018.9 - 0.0 - - 10 - - - -
30/04:30pm 23.4 NNE 8 10 1018.8 - 0.0 - - 10 - - - -
30/04:00pm 24.0 NNE 9 11 1018.6 - 0.0 - - 10 - - - -
30/03:30pm 24.6 NNE 9 11 1018.6 - 0.0 - - 10 - - - -
30/03:00pm 25.5 NNE 9 13 1018.4 - 0.0 - Mostly clear 10 - - - -
30/02:30pm 26.2 NNE 9 14 1018.5 - 0.0 - Partly cloudy 10 - - - -
30/02:00pm 25.9 NNE 9 11 1018.6 - 0.0 - Partly cloudy 10 - - - -
30/01:30pm 27.0 NNW 7 10 1019.0 - 0.0 - Partly cloudy 10 - - - -
30/01:00pm 26.0 NNE 5 8 1019.5 - 0.0 - Partly cloudy 10 - - - -
30/12:30pm 25.2 N 4 8 1020.0 - 0.0 - - 10 - - - -
30/12:00pm 25.7 WNW 5 7 1020.7 - 0.0 - - 10 - - - -
30/11:30am 25.1 NW 4 7 1021.4 - 0.0 - Partly cloudy 10 - - - -
30/11:00am 24.8 SW 2 5 1021.8 - 0.0 - Partly cloudy 10 - - - -
30/10:30am 24.0 WNW 4 6 1022.4 - 0.0 - Partly cloudy 10 - - - -
30/10:00am 23.0 WNW 2 4 1022.7 - 0.0 - - 10 - - - -
30/09:30am 21.7 CALM 0 0 1023.1 - 0.0 - - 10 - - - -
30/09:00am 20.3 SW 4 5 1023.2 - 0.0 - - 10 - - - -
30/08:30am 19.2 SW 5 6 1023.3 - 0.0 - - 10 - - - -
30/08:00am 18.0 SW 5 7 1023.3 - 0.0 - - 10 - - - -
30/07:30am 17.1 SW 5 7 1022.9 - 0.0 - - 10 - - - -
30/07:00am 16.4 SSW 4 6 1022.6 - 0.0 - - 10 - - - -
30/06:37am 15.8 SW 6 7 1022.5 - 0.0 - Partly cloudy 10 - - - -
30/06:36am 15.8 SW 6 7 1022.5 - 0.0 - Partly cloudy 10 - - - -
30/06:30am 15.7 SW 6 7 1022.5 - 0.0 - Partly cloudy 10 - - - -
30/06:22am 15.6 SW 5 7 1022.5 - 0.0 - Partly cloudy 1 - - - -
30/06:07am 14.1 CALM 0 0 1022.2 - 0.0 - Cloudy 0.9 - - - -
30/06:04am 14.2 CALM 0 0 1022.2 - 0.0 - Cloudy 1 - - - -
30/06:00am 14.1 CALM 0 0 1022.3 - 0.0 - Cloudy 0.5 - - - -
30/05:48am 13.8 CALM 0 0 1022.1 - 0.0 - Cloudy 0.9 - - - -
30/05:43am 14.2 CALM 0 0 1022.0 - 0.0 - Cloudy 1 - - - -
30/05:30am 14.6 CALM 0 0 1021.8 - 0.0 - Partly cloudy 0.9 - - - -
30/05:28am 14.7 CALM 0 0 1021.8 - 0.0 - Partly cloudy 0.9 - - - -
30/05:24am 14.6 CALM 0 0 1021.7 - 0.0 - Partly cloudy 0.9 - - - -
30/05:14am 14.9 CALM 0 0 1021.6 - 0.0 - - 1 - - - -
30/05:08am 14.8 CALM 0 0 1021.6 - 0.0 - - 5 - - - -
30/05:05am 15.1 CALM 0 0 1021.6 - 0.0 - - 8 - - - -
30/05:00am 15.3 CALM 0 0 1021.5 - 0.0 - - 9 - - - -
30/04:51am 15.2 CALM 0 0 1021.5 - 0.0 - Partly cloudy 0.9 - - - -
30/04:41am 15.3 CALM 0 0 1021.5 - 0.0 - Partly cloudy 0.9 - - - -
30/04:36am 15.5 SSW 1 4 1021.4 - 0.0 - - 5 - - - -
30/04:30am 15.4 SSW 3 4 1021.4 - 0.0 - - 10 - - - -
30/04:04am 14.6 CALM 0 2 1021.3 - 0.0 - - 10 - - - -
30/04:00am 14.4 CALM 0 0 1021.2 - 0.0 - - 10 - - - -
30/03:48am 14.6 CALM 0 0 1021.2 - 0.0 - - 0.9 - - - -
30/03:41am 14.5 CALM 0 0 1021.3 - 0.0 - - 1 - - - -
30/03:33am 14.9 CALM 0 0 1021.3 - 0.0 - - 5 - - - -
30/03:30am 14.9 CALM 0 3 1021.4 - 0.0 - - 10 - - - -
30/03:00am 14.5 SSW 3 4 1021.4 - 0.0 - - 10 - - - -
30/02:33am 15.0 SSW 3 3 1021.5 - 0.0 - - 10 - - - -
30/02:30am 15.3 SSW 3 4 1021.5 - 0.0 - - 9 - - - -
30/02:15am 15.2 SSW 1 5 1021.7 - 0.0 - Partly cloudy 2 - - - -
30/02:05am 15.2 CALM 0 0 1021.6 - 0.0 - Partly cloudy 0.9 - - - -
30/02:00am 14.8 CALM 0 0 1021.7 - 0.0 - Partly cloudy 0.9 - - - -
30/01:59am 14.8 CALM 0 0 1021.7 - 0.0 - Partly cloudy 0.9 - - - -
30/01:52am 14.9 CALM 0 0 1021.7 - 0.0 - Cloudy 1 - - - -
30/01:30am 15.2 CALM 0 0 1022.0 - 0.0 - Cloudy 4 - - - -
30/01:00am 15.4 CALM 0 0 1022.3 - 0.0 - Cloudy 0.5 - - - -
30/12:30am 15.5 CALM 0 0 1022.6 - 0.0 - Cloudy 0.4 - - - -
30/12:03am 15.5 S 3 4 1022.7 - 0.0 - Cloudy 0.3 - - - -
30/12:02am 15.5 S 3 4 1022.7 - 0.0 - Cloudy 0.3 - - - -
30/12:00am 15.5 S 3 4 1022.7 - 0.0 - Cloudy 0.3 - - - -
 
Date/Time
EST
Temp

°C
Wind Pressure Rain
since 9am
mm
Weather Cloud Vis
km
Sea
Height
m
Swell
Dir
 
Speed
knots
Gust
knots
hPa Trend Height
m
Period
s
Dir
29/11:59pm 15.6 S 3 4 1022.7 - 0.0 - Cloudy 0.3 - - - -
29/11:57pm 15.6 S 3 4 1022.7 - 0.0 - Cloudy 0.4 - - - -
29/11:56pm 15.5 S 3 4 1022.7 - 0.0 - Cloudy 0.4 - - - -
29/11:55pm 15.6 S 3 4 1022.7 - 0.0 - Cloudy 0.4 - - - -
29/11:30pm 15.7 CALM 0 0 1022.9 - 0.0 - Cloudy 0.3 - - - -
29/11:20pm 15.8 CALM 0 0 1022.9 - 0.0 - Cloudy 0.5 - - - -
29/11:19pm 15.9 CALM 0 0 1022.9 - 0.0 - Cloudy 0.5 - - - -
29/11:18pm 16.0 CALM 0 0 1022.9 - 0.0 - Cloudy 0.6 - - - -
29/11:12pm 15.9 CALM 0 0 1022.9 - 0.0 - Cloudy 5 - - - -
29/11:00pm 15.9 CALM 0 0 1023.1 - 0.0 - Partly cloudy 10 - - - -
29/10:49pm 15.6 CALM 0 0 1023.1 - 0.0 - Partly cloudy 10 - - - -
29/10:30pm 16.0 CALM 0 0 1023.2 - 0.0 - - 9 - - - -
29/10:00pm 16.7 CALM 0 0 1023.1 - 0.0 - - 10 - - - -
29/09:51pm 16.9 CALM 0 0 1023.1 - 0.0 - - 10 - - - -
29/09:36pm 17.0 CALM 0 0 1023.0 - 0.0 - - 1 - - - -
29/09:32pm 16.9 CALM 0 0 1023.1 - 0.0 - - 0.9 - - - -
29/09:30pm 16.8 CALM 0 0 1023.1 - 0.0 - - 1 - - - -
29/09:26pm 16.9 CALM 0 0 1023.1 - 0.0 - - 5 - - - -
29/09:00pm 16.8 ESE 1 3 1023.1 - 0.0 - - 10 - - - -
29/08:30pm 17.2 ESE 3 4 1023.2 - 0.0 - - 10 - - - -
29/08:00pm 18.3 ESE 4 5 1023.1 - 0.0 - - 10 - - - -
29/07:30pm 18.2 ESE 3 3 1023.0 - 0.0 - - 10 - - - -
29/07:00pm 18.5 ENE 4 5 1022.7 - 0.0 - - 10 - - - -
29/06:30pm 19.0 E 4 5 1022.3 - 0.0 - - 10 - - - -
29/06:00pm 20.1 ENE 4 5 1022.1 - 0.0 - - 10 - - - -
29/05:30pm 21.0 NE 5 7 1021.9 - 0.0 - - 10 - - - -
29/05:00pm 22.2 ENE 5 6 1021.7 - 0.0 - - 10 - - - -
29/04:30pm 23.5 ENE 7 9 1021.5 - 0.0 - - 10 - - - -
29/04:00pm 24.4 NE 7 10 1021.2 - 0.0 - - 10 - - - -
29/03:30pm 25.0 NE 7 10 1021.1 - 0.0 - Partly cloudy 10 - - - -
29/03:00pm 24.6 NNE 8 11 1021.0 - 0.0 - Cloudy 10 - - - -
29/02:30pm 24.8 ENE 7 10 1021.1 - 0.0 - Cloudy 10 - - - -
29/02:00pm 26.0 NNE 6 10 1021.3 - 0.0 - Partly cloudy 10 - - - -
29/01:30pm 25.9 N 5 8 1021.3 - 0.0 - Partly cloudy 10 - - - -
29/01:00pm 24.2 E 5 7 1021.6 - 0.0 - Partly cloudy 10 - - - -
29/12:30pm 24.5 ESE 5 8 1022.0 - 0.0 - Partly cloudy 10 - - - -
29/12:00pm 25.3 E 3 8 1022.4 - 0.0 - Mostly clear 10 - - - -
29/11:30am 24.0 NNE 4 9 1022.8 - 0.0 - Partly cloudy 10 - - - -
29/11:00am 23.6 ENE 5 9 1023.3 - 0.0 - Partly cloudy 10 - - - -
29/10:30am 23.3 ESE 5 8 1023.7 - 0.0 - Partly cloudy 10 - - - -
29/10:00am 22.8 S 5 7 1024.1 - 0.0 - - 10 - - - -
29/09:30am 21.5 S 5 7 1024.5 - 0.0 - - 10 - - - -
29/09:00am 20.2 S 5 7 1024.3 - 0.2 - - 10 - - - -
29/08:30am 19.0 SSE 5 7 1024.0 - 0.2 - - 10 - - - -
29/08:00am 17.5 S 6 7 1024.0 - 0.2 - - 10 - - - -
29/07:30am 16.5 S 7 9 1023.8 - 0.2 - - 9 - - - -
29/07:00am 15.8 S 7 9 1023.6 - 0.2 - - 6 - - - -
29/06:53am 15.7 S 7 8 1023.5 - 0.2 - - 6 - - - -
29/06:43am 15.6 S 7 8 1023.5 - 0.2 - - 5 - - - -
29/06:37am 15.5 S 7 9 1023.4 - 0.2 - - 6 - - - -
29/06:30am 15.6 S 7 9 1023.3 - 0.2 - - 6 - - - -
29/06:00am 15.6 S 7 8 1023.0 - 0.2 - - 5 - - - -
29/05:30am 15.7 S 7 8 1022.6 - 0.2 - - 5 - - - -
29/05:00am 15.6 S 6 8 1022.4 - 0.2 - - 4 - - - -
29/04:30am 15.7 S 7 8 1022.3 - 0.2 - - 5 - - - -
29/04:04am 15.9 S 7 9 1022.3 - 0.2 - - 5 - - - -
29/04:00am 15.9 S 7 9 1022.3 - 0.2 - - 6 - - - -
29/03:30am 15.8 S 7 8 1022.3 - 0.0 - - 9 - - - -
29/03:00am 15.7 S 5 9 1022.5 - 0.0 - Mostly clear 10 - - - -
29/02:30am 16.0 S 6 8 1022.6 - 0.0 - - 10 - - - -
29/02:00am 15.8 S 6 8 1022.7 - 0.0 - - 10 - - - -
29/01:30am 15.8 S 6 7 1022.7 - 0.0 - - 10 - - - -
29/01:00am 16.2 S 7 9 1023.0 - 0.0 - - 10 - - - -
29/12:30am 16.2 S 5 6 1023.1 - 0.0 - - 10 - - - -
29/12:00am 16.5 S 5 7 1023.2 - 0.0 - - 10 - - - -
 
Date/Time
EST
Temp

°C
Wind Pressure Rain
since 9am
mm
Weather Cloud Vis
km
Sea
Height
m
Swell
Dir
 
Speed
knots
Gust
knots
hPa Trend Height
m
Period
s
Dir
28/11:30pm 16.2 S 5 7 1023.2 - 0.0 - - 10 - - - -
28/11:00pm 16.8 S 6 8 1023.3 - 0.0 - - 10 - - - -
28/10:30pm 16.8 S 6 8 1023.6 - 0.0 - - 10 - - - -
28/10:00pm 17.1 SSE 6 8 1023.5 - 0.0 - - 10 - - - -
28/09:30pm 17.1 S 6 7 1023.6 - 0.0 - - 10 - - - -
28/09:00pm 17.3 SSE 5 7 1023.6 - 0.0 - - 10 - - - -
28/08:30pm 17.7 SSE 5 6 1023.6 - 0.0 - - 10 - - - -
28/08:00pm 18.0 SSE 5 6 1023.5 - 0.0 - - 10 - - - -
28/07:30pm 18.3 SSE 5 6 1023.3 - 0.0 - - 10 - - - -
28/07:00pm 18.5 SE 4 4 1022.8 - 0.0 - - 10 - - - -
28/06:30pm 18.8 SE 4 5 1022.4 - 0.0 - - 10 - - - -
28/06:00pm 19.4 E 6 7 1021.9 - 0.0 - - 10 - - - -
28/05:30pm 20.2 E 7 9 1021.7 - 0.0 - - 10 - - - -
28/05:00pm 21.3 E 7 10 1021.5 - 0.0 - - 10 - - - -
28/04:30pm 22.5 E 9 12 1021.3 - 0.0 - - 10 - - - -
28/04:00pm 23.3 E 9 12 1021.3 - 0.0 - - 10 - - - -
28/03:30pm 23.9 E 9 12 1021.2 - 0.0 - - 10 - - - -
28/03:00pm 24.4 E 8 11 1021.0 - 0.0 - - 10 - - - -
28/02:30pm 24.8 E 8 10 1020.9 - 0.0 - - 10 - - - -
28/02:00pm 24.8 E 6 10 1021.2 - 0.0 - - 10 - - - -
28/01:30pm 25.1 E 8 11 1021.5 - 0.0 - - 10 - - - -
28/01:00pm 24.8 ENE 9 14 1021.5 - 0.0 - - 10 - - - -
28/12:30pm 24.9 E 8 13 1022.0 - 0.0 - - 10 - - - -
28/12:00pm 24.6 E 8 12 1022.5 - 0.0 - Partly cloudy 10 - - - -
28/11:30am 23.6 SE 5 9 1023.0 - 0.0 - Partly cloudy 10 - - - -
28/11:00am 24.4 E 7 11 1023.2 - 0.0 - Partly cloudy 10 - - - -
28/10:30am 23.3 SE 6 11 1023.5 - 0.0 - Partly cloudy 10 - - - -
28/10:00am 22.4 SSE 6 10 1023.9 - 0.0 - - 10 - - - -
28/09:30am 21.3 S 7 10 1023.7 - 0.0 - - 10 - - - -
28/09:00am 19.6 SSE 7 11 1023.6 - 0.0 - - 10 - - - -

Other Formats:

Comma delimited format used in spreadsheet applications
http://www.bom.gov.au/fwo/IDQ60701/IDQ60701.94387.axf

JavaScript Object Notation format (JSON) in row-major order
http://www.bom.gov.au/fwo/IDQ60701/IDQ60701.94387.json